Time,TemperatureF,DewpointF,PressureIn,WindDirection,WindDirectionDegrees,WindSpeedMPH,WindSpeedGustMPH,Humidity,HourlyPrecipIn,Conditions,Clouds,dailyrainin,SolarRadiationWatts/m^2,SoftwareType,DateUTC
2013-09-28 00:02:00,50.4,49.3,30.24,North,349,0.0,1.0,96,0.00,,,0.00,0,Wunderground v.1.15,2013-09-28 04:02:00,
2013-09-28 00:03:00,50.3,49.2,30.24,North,349,0.0,1.0,96,0.00,,,0.00,0,Wunderground v.1.15,2013-09-28 04:03:00,
2013-09-28 00:05:00,50.2,49.1,30.24,North,349,0.0,1.0,96,0.00,,,0.00,0,Wunderground v.1.15,2013-09-28 04:05:00,
2013-09-28 00:07:00,50.1,48.7,30.24,North,349,0.0,1.0,95,0.00,,,0.00,0,Wunderground v.1.15,2013-09-28 04:07:00,
2013-09-28 00:10:00,50.0,48.6,30.24,North,349,0.0,1.0,95,0.00,,,0.00,0,Wunderground v.1.15,2013-09-28 04:10:00,
2013-09-28 00:15:00,49.7,48.6,30.24,North,349,1.0,1.0,96,0.00,,,0.00,0,Wunderground v.1.15,2013-09-28 04:15:00,
2013-09-28 00:21:00,49.5,48.1,30.24,North,349,1.0,1.0,95,0.00,,,0.00,0,Wunderground v.1.15,2013-09-28 04:21:00,
2013-09-28 00:26:00,49.4,48.3,30.24,North,349,0.0,1.0,96,0.00,,,0.00,0,Wunderground v.1.15,2013-09-28 04:26:00,
2013-09-28 00:31:00,49.4,48.3,30.24,North,349,0.0,0.0,96,0.00,,,0.00,0,Wunderground v.1.15,2013-09-28 04:31:00,
2013-09-28 00:37:00,49.5,48.4,30.24,North,349,0.0,1.0,96,0.00,,,0.00,0,Wunderground v.1.15,2013-09-28 04:37:00,
2013-09-28 00:42:00,49.6,48.5,30.24,North,349,0.0,0.0,96,0.00,,,0.00,0,Wunderground v.1.15,2013-09-28 04:42:00,
2013-09-28 00:48:00,49.7,48.6,30.24,North,349,0.0,1.0,96,0.00,,,0.00,0,Wunderground v.1.15,2013-09-28 04:48:00,
2013-09-28 00:54:00,49.8,48.7,30.24,North,349,0.0,0.0,96,0.00,,,0.00,0,Wunderground v.1.15,2013-09-28 04:54:00,
2013-09-28 01:00:00,49.8,48.7,30.24,North,349,0.0,1.0,96,0.00,,,0.00,0,Wunderground v.1.15,2013-09-28 05:00:00,
2013-09-28 01:06:00,49.8,48.7,30.24,North,349,1.0,1.0,96,0.00,,,0.00,0,Wunderground v.1.15,2013-09-28 05:06:00,
2013-09-28 01:11:00,49.7,48.6,30.24,North,349,1.0,1.0,96,0.00,,,0.00,0,Wunderground v.1.15,2013-09-28 05:11:00,
2013-09-28 01:17:00,49.7,48.9,30.24,North,349,1.0,2.0,97,0.00,,,0.00,0,Wunderground v.1.15,2013-09-28 05:17:00,
2013-09-28 01:22:00,50.0,49.2,30.25,North,360,1.0,3.0,97,0.00,,,0.00,0,Wunderground v.1.15,2013-09-28 05:22:00,
2013-09-28 01:28:00,50.2,49.4,30.25,NNE,20,1.0,3.0,97,0.00,,,0.00,0,Wunderground v.1.15,2013-09-28 05:28:00,
2013-09-28 01:33:00,50.1,49.3,30.25,North,9,1.0,3.0,97,0.00,,,0.00,0,Wunderground v.1.15,2013-09-28 05:33:00,
2013-09-28 01:39:00,50.0,49.2,30.25,North,355,1.0,3.0,97,0.00,,,0.00,0,Wunderground v.1.15,2013-09-28 05:39:00,
2013-09-28 01:45:00,49.9,49.1,30.25,NNE,13,1.0,2.0,97,0.00,,,0.00,0,Wunderground v.1.15,2013-09-28 05:45:00,
2013-09-28 01:50:00,49.7,48.9,30.25,NNE,17,1.0,1.0,97,0.00,,,0.00,0,Wunderground v.1.15,2013-09-28 05:50:00,
2013-09-28 01:55:00,49.6,48.8,30.25,North,9,1.0,2.0,97,0.00,,,0.00,0,Wunderground v.1.15,2013-09-28 05:55:00,
2013-09-28 02:01:00,49.4,48.6,30.25,North,9,0.0,0.0,97,0.00,,,0.00,0,Wunderground v.1.15,2013-09-28 06:01:00,
2013-09-28 02:06:00,49.4,48.6,30.25,North,9,0.0,2.0,97,0.00,,,0.00,0,Wunderground v.1.15,2013-09-28 06:06:00,
2013-09-28 02:12:00,49.4,48.6,30.25,North,5,1.0,1.0,97,0.00,,,0.00,0,Wunderground v.1.15,2013-09-28 06:12:00,
2013-09-28 02:17:00,49.4,48.6,30.25,North,5,0.0,1.0,97,0.00,,,0.00,0,Wunderground v.1.15,2013-09-28 06:17:00,
2013-09-28 02:23:00,49.4,48.6,30.25,North,5,0.0,1.0,97,0.00,,,0.00,0,Wunderground v.1.15,2013-09-28 06:23:00,
2013-09-28 02:29:00,49.4,48.6,30.25,North,350,1.0,4.0,97,0.00,,,0.00,0,Wunderground v.1.15,2013-09-28 06:29:00,
2013-09-28 02:35:00,49.4,48.6,30.25,NNE,13,2.0,2.0,97,0.00,,,0.00,0,Wunderground v.1.15,2013-09-28 06:35:00,
2013-09-28 02:40:00,49.3,48.5,30.25,NNE,13,1.0,1.0,97,0.00,,,0.00,0,Wunderground v.1.15,2013-09-28 06:40:00,
2013-09-28 02:45:00,49.2,48.4,30.25,NNE,25,0.0,3.0,97,0.00,,,0.00,0,Wunderground v.1.15,2013-09-28 06:45:00,
2013-09-28 02:51:00,49.1,48.3,30.24,NNE,23,1.0,1.0,97,0.00,,,0.00,0,Wunderground v.1.15,2013-09-28 06:51:00,
2013-09-28 02:57:00,49.0,48.2,30.25,NNE,23,0.0,1.0,97,0.00,,,0.00,0,Wunderground v.1.15,2013-09-28 06:57:00,
2013-09-28 03:02:00,48.9,48.1,30.25,North,360,1.0,2.0,97,0.00,,,0.00,0,Wunderground v.1.15,2013-09-28 07:02:00,
2013-09-28 03:07:00,48.9,48.1,30.25,North,355,1.0,2.0,97,0.00,,,0.00,0,Wunderground v.1.15,2013-09-28 07:07:00,
2013-09-28 03:13:00,48.9,48.1,30.25,NNE,24,1.0,2.0,97,0.00,,,0.00,0,Wunderground v.1.15,2013-09-28 07:13:00,
2013-09-28 03:18:00,48.8,48.0,30.25,North,355,1.0,2.0,97,0.00,,,0.00,0,Wunderground v.1.15,2013-09-28 07:18:00,
2013-09-28 03:24:00,48.7,47.9,30.25,North,351,1.0,2.0,97,0.00,,,0.00,0,Wunderground v.1.15,2013-09-28 07:24:00,
2013-09-28 03:30:00,48.5,47.7,30.25,North,351,1.0,1.0,97,0.00,,,0.00,0,Wunderground v.1.15,2013-09-28 07:30:00,
2013-09-28 03:36:00,48.5,47.7,30.25,North,5,1.0,2.0,97,0.00,,,0.00,0,Wunderground v.1.15,2013-09-28 07:36:00,
2013-09-28 03:42:00,48.6,47.8,30.25,North,5,1.0,2.0,97,0.00,,,0.00,0,Wunderground v.1.15,2013-09-28 07:42:00,
2013-09-28 03:47:00,48.6,47.8,30.25,North,11,2.0,3.0,97,0.00,,,0.00,0,Wunderground v.1.15,2013-09-28 07:47:00,
2013-09-28 03:52:00,48.5,47.7,30.25,North,5,1.0,1.0,97,0.00,,,0.00,0,Wunderground v.1.15,2013-09-28 07:52:00,
2013-09-28 03:58:00,48.7,47.9,30.25,North,355,1.0,3.0,97,0.00,,,0.00,0,Wunderground v.1.15,2013-09-28 07:58:00,
2013-09-28 04:03:00,48.6,47.8,30.26,NNE,32,1.0,2.0,97,0.00,,,0.00,0,Wunderground v.1.15,2013-09-28 08:03:00,
2013-09-28 04:09:00,48.5,47.7,30.26,NNE,23,1.0,3.0,97,0.00,,,0.00,0,Wunderground v.1.15,2013-09-28 08:09:00,
2013-09-28 04:14:00,48.4,47.6,30.26,NNE,23,1.0,1.0,97,0.00,,,0.00,0,Wunderground v.1.15,2013-09-28 08:14:00,
2013-09-28 04:20:00,48.4,47.6,30.25,North,5,1.0,1.0,97,0.00,,,0.00,0,Wunderground v.1.15,2013-09-28 08:20:00,
2013-09-28 04:26:00,48.5,47.7,30.25,NNE,28,1.0,2.0,97,0.00,,,0.00,0,Wunderground v.1.15,2013-09-28 08:26:00,
2013-09-28 04:31:00,48.3,47.5,30.26,NNE,29,1.0,1.0,97,0.00,,,0.00,0,Wunderground v.1.15,2013-09-28 08:31:00,
2013-09-28 04:36:00,48.2,47.4,30.26,NE,40,0.0,1.0,97,0.00,,,0.00,0,Wunderground v.1.15,2013-09-28 08:36:00,
2013-09-28 04:42:00,48.1,47.3,30.26,North,355,1.0,2.0,97,0.00,,,0.00,0,Wunderground v.1.15,2013-09-28 08:42:00,
2013-09-28 04:47:00,48.2,47.4,30.26,NNE,27,1.0,2.0,97,0.00,,,0.00,0,Wunderground v.1.15,2013-09-28 08:47:00,
2013-09-28 04:52:00,48.1,47.3,30.26,NE,42,1.0,1.0,97,0.00,,,0.00,0,Wunderground v.1.15,2013-09-28 08:52:00,
2013-09-28 04:58:00,48.1,47.3,30.27,NE,42,1.0,2.0,97,0.00,,,0.00,0,Wunderground v.1.15,2013-09-28 08:58:00,
2013-09-28 05:03:00,48.0,47.2,30.27,NE,42,0.0,1.0,97,0.00,,,0.00,0,Wunderground v.1.15,2013-09-28 09:03:00,
2013-09-28 05:09:00,47.9,47.1,30.27,NE,42,0.0,1.0,97,0.00,,,0.00,0,Wunderground v.1.15,2013-09-28 09:09:00,
2013-09-28 05:14:00,48.0,47.2,30.27,NE,42,1.0,2.0,97,0.00,,,0.00,0,Wunderground v.1.15,2013-09-28 09:14:00,
2013-09-28 05:20:00,47.9,47.1,30.27,NE,42,1.0,1.0,97,0.00,,,0.00,0,Wunderground v.1.15,2013-09-28 09:20:00,
2013-09-28 05:26:00,47.9,47.1,30.27,NE,42,0.0,1.0,97,0.00,,,0.00,0,Wunderground v.1.15,2013-09-28 09:26:00,
2013-09-28 05:32:00,48.0,47.2,30.27,NNE,16,0.0,2.0,97,0.00,,,0.00,0,Wunderground v.1.15,2013-09-28 09:32:00,
2013-09-28 05:38:00,48.1,47.3,30.27,North,355,1.0,3.0,97,0.00,,,0.00,0,Wunderground v.1.15,2013-09-28 09:38:00,
2013-09-28 05:44:00,48.1,47.3,30.27,North,9,2.0,2.0,97,0.00,,,0.00,0,Wunderground v.1.15,2013-09-28 09:44:00,
2013-09-28 05:50:00,48.0,47.2,30.28,NE,36,1.0,1.0,97,0.00,,,0.00,0,Wunderground v.1.15,2013-09-28 09:50:00,
2013-09-28 05:56:00,47.9,47.1,30.28,North,9,1.0,3.0,97,0.00,,,0.01,0,Wunderground v.1.15,2013-09-28 09:56:00,
2013-09-28 06:02:00,47.9,47.1,30.28,North,355,1.0,2.0,97,0.00,,,0.01,0,Wunderground v.1.15,2013-09-28 10:02:00,
2013-09-28 06:08:00,47.9,47.1,30.28,North,11,1.0,3.0,97,0.00,,,0.01,0,Wunderground v.1.15,2013-09-28 10:08:00,
2013-09-28 06:14:00,47.9,47.1,30.28,NNE,24,1.0,1.0,97,0.00,,,0.01,0,Wunderground v.1.15,2013-09-28 10:14:00,
2013-09-28 06:20:00,47.8,47.0,30.29,North,360,1.0,1.0,97,0.00,,,0.01,0,Wunderground v.1.15,2013-09-28 10:20:00,
2013-09-28 06:26:00,47.7,46.9,30.29,North,355,1.0,2.0,97,0.00,,,0.01,0,Wunderground v.1.15,2013-09-28 10:26:00,
2013-09-28 06:32:00,47.6,46.8,30.29,North,355,1.0,1.0,97,0.00,,,0.01,0,Wunderground v.1.15,2013-09-28 10:32:00,
2013-09-28 06:37:00,47.5,46.7,30.29,North,355,1.0,2.0,97,0.00,,,0.01,5,Wunderground v.1.15,2013-09-28 10:37:00,
2013-09-28 06:42:00,47.5,46.7,30.30,North,355,1.0,1.0,97,0.00,,,0.01,7,Wunderground v.1.15,2013-09-28 10:42:00,
2013-09-28 06:48:00,47.4,46.6,30.30,North,355,1.0,1.0,97,0.00,,,0.01,11,Wunderground v.1.15,2013-09-28 10:48:00,
2013-09-28 06:53:00,47.4,46.6,30.30,North,355,0.0,1.0,97,0.00,,,0.01,12,Wunderground v.1.15,2013-09-28 10:53:00,
2013-09-28 06:59:00,47.4,46.9,30.30,North,355,0.0,1.0,98,0.00,,,0.01,14,Wunderground v.1.15,2013-09-28 10:59:00,
2013-09-28 07:05:00,47.4,46.9,30.30,North,355,0.0,1.0,98,0.00,,,0.01,16,Wunderground v.1.15,2013-09-28 11:05:00,
2013-09-28 07:11:00,47.5,47.0,30.30,North,355,0.0,1.0,98,0.00,,,0.01,19,Wunderground v.1.15,2013-09-28 11:11:00,
2013-09-28 07:17:00,47.6,47.1,30.30,North,355,0.0,1.0,98,0.00,,,0.01,19,Wunderground v.1.15,2013-09-28 11:17:00,
2013-09-28 07:23:00,47.7,47.2,30.31,North,355,0.0,0.0,98,0.00,,,0.01,21,Wunderground v.1.15,2013-09-28 11:23:00,
2013-09-28 07:29:00,47.8,47.3,30.31,North,355,0.0,0.0,98,0.00,,,0.01,23,Wunderground v.1.15,2013-09-28 11:29:00,
2013-09-28 07:35:00,48.1,47.6,30.31,North,355,1.0,3.0,98,0.00,,,0.01,25,Wunderground v.1.15,2013-09-28 11:35:00,
2013-09-28 07:40:00,48.3,47.8,30.31,North,5,1.0,1.0,98,0.00,,,0.01,32,Wunderground v.1.15,2013-09-28 11:40:00,
2013-09-28 07:46:00,48.5,48.0,30.31,North,360,1.0,1.0,98,0.00,,,0.01,26,Wunderground v.1.15,2013-09-28 11:46:00,
2013-09-28 07:51:00,48.8,48.3,30.31,North,360,1.0,2.0,98,0.00,,,0.01,28,Wunderground v.1.15,2013-09-28 11:51:00,
2013-09-28 07:57:00,49.1,48.6,30.31,North,355,2.0,3.0,98,0.00,,,0.01,30,Wunderground v.1.15,2013-09-28 11:57:00,
2013-09-28 08:03:00,49.4,48.9,30.31,North,355,1.0,2.0,98,0.00,,,0.01,30,Wunderground v.1.15,2013-09-28 12:03:00,
2013-09-28 08:09:00,49.7,49.2,30.31,North,355,1.0,2.0,98,0.00,,,0.01,28,Wunderground v.1.15,2013-09-28 12:09:00,
2013-09-28 08:14:00,50.0,49.5,30.32,North,360,1.0,3.0,98,0.00,,,0.01,30,Wunderground v.1.15,2013-09-28 12:14:00,
2013-09-28 08:19:00,50.3,49.8,30.32,NNW,336,1.0,3.0,98,0.00,,,0.01,30,Wunderground v.1.15,2013-09-28 12:19:00,
2013-09-28 08:25:00,50.7,50.2,30.32,NNW,338,1.0,2.0,98,0.00,,,0.01,239,Wunderground v.1.15,2013-09-28 12:25:00,
2013-09-28 08:30:00,51.0,50.5,30.32,NNW,338,0.0,0.0,98,0.00,,,0.01,251,Wunderground v.1.15,2013-09-28 12:30:00,
2013-09-28 08:35:00,51.6,51.1,30.32,NNW,338,0.0,1.0,98,0.00,,,0.01,264,Wunderground v.1.15,2013-09-28 12:35:00,
2013-09-28 08:41:00,52.4,51.9,30.32,North,355,1.0,1.0,98,0.00,,,0.01,278,Wunderground v.1.15,2013-09-28 12:41:00,
2013-09-28 08:46:00,53.0,52.5,30.32,WNW,299,1.0,2.0,98,0.00,,,0.01,290,Wunderground v.1.15,2013-09-28 12:46:00,
2013-09-28 08:52:00,53.6,53.0,30.32,WNW,288,1.0,1.0,98,0.00,,,0.01,304,Wunderground v.1.15,2013-09-28 12:52:00,
2013-09-28 08:58:00,54.2,53.6,30.32,WNW,288,0.0,2.0,98,0.00,,,0.01,320,Wunderground v.1.15,2013-09-28 12:58:00,
2013-09-28 09:03:00,54.9,54.3,30.32,WNW,289,0.0,1.0,98,0.00,,,0.01,332,Wunderground v.1.15,2013-09-28 13:03:00,
2013-09-28 09:09:00,55.7,54.9,30.32,WNW,284,0.0,3.0,97,0.00,,,0.01,346,Wunderground v.1.15,2013-09-28 13:09:00,
2013-09-28 09:15:00,56.6,55.5,30.32,WNW,300,0.0,1.0,96,0.00,,,0.01,360,Wunderground v.1.15,2013-09-28 13:15:00,
2013-09-28 09:21:00,57.4,56.0,30.32,WNW,284,1.0,2.0,95,0.00,,,0.01,374,Wunderground v.1.15,2013-09-28 13:21:00,
2013-09-28 09:26:00,58.2,56.2,30.32,WNW,292,2.0,3.0,93,0.00,,,0.01,387,Wunderground v.1.15,2013-09-28 13:26:00,
2013-09-28 09:32:00,59.1,56.2,30.33,WNW,292,2.0,2.0,90,0.00,,,0.01,401,Wunderground v.1.15,2013-09-28 13:32:00,
2013-09-28 09:38:00,60.0,56.4,30.33,WNW,293,1.0,3.0,88,0.00,,,0.01,417,Wunderground v.1.15,2013-09-28 13:38:00,
2013-09-28 09:44:00,60.7,56.5,30.33,WNW,285,1.0,1.0,86,0.00,,,0.01,429,Wunderground v.1.15,2013-09-28 13:44:00,
2013-09-28 09:49:00,61.4,56.5,30.33,NW,325,1.0,3.0,84,0.00,,,0.01,450,Wunderground v.1.15,2013-09-28 13:49:00,
2013-09-28 09:55:00,62.2,56.6,30.33,NNW,333,1.0,2.0,82,0.00,,,0.01,462,Wunderground v.1.15,2013-09-28 13:55:00,
2013-09-28 10:00:00,63.0,56.7,30.33,NW,326,1.0,1.0,80,0.00,,,0.01,476,Wunderground v.1.15,2013-09-28 14:00:00,
2013-09-28 10:06:00,63.7,56.7,30.33,NE,45,1.0,2.0,78,0.00,,,0.01,492,Wunderground v.1.15,2013-09-28 14:06:00,
2013-09-28 10:12:00,64.4,56.3,30.33,NNW,331,1.0,5.0,75,0.00,,,0.01,503,Wunderground v.1.15,2013-09-28 14:12:00,
2013-09-28 10:17:00,64.7,55.8,30.33,NNE,19,2.0,5.0,73,0.00,,,0.01,513,Wunderground v.1.15,2013-09-28 14:17:00,
2013-09-28 10:22:00,65.0,56.9,30.32,North,5,2.0,2.0,75,0.00,,,0.01,524,Wunderground v.1.15,2013-09-28 14:22:00,
2013-09-28 10:27:00,65.3,56.0,30.32,NE,51,1.0,2.0,72,0.00,,,0.01,534,Wunderground v.1.15,2013-09-28 14:27:00,
2013-09-28 10:33:00,65.9,56.6,30.32,NNW,327,1.0,4.0,72,0.00,,,0.01,543,Wunderground v.1.15,2013-09-28 14:33:00,
2013-09-28 10:38:00,66.2,56.5,30.32,NNW,338,2.0,4.0,71,0.00,,,0.01,552,Wunderground v.1.15,2013-09-28 14:38:00,
2013-09-28 10:44:00,66.7,57.4,30.32,West,275,2.0,3.0,72,0.00,,,0.01,563,Wunderground v.1.15,2013-09-28 14:44:00,
2013-09-28 10:49:00,67.0,56.5,30.32,WNW,296,1.0,3.0,69,0.00,,,0.01,571,Wunderground v.1.15,2013-09-28 14:49:00,
2013-09-28 10:55:00,67.2,56.3,30.32,North,5,2.0,6.0,68,0.00,,,0.01,580,Wunderground v.1.15,2013-09-28 14:55:00,
2013-09-28 11:01:00,68.0,56.2,30.32,North,5,1.0,1.0,66,0.00,,,0.01,582,Wunderground v.1.15,2013-09-28 15:01:00,
2013-09-28 11:06:00,68.3,55.2,30.32,NNE,19,1.0,3.0,63,0.00,,,0.01,596,Wunderground v.1.15,2013-09-28 15:06:00,
2013-09-28 11:12:00,68.5,55.8,30.32,NNW,346,1.0,4.0,64,0.00,,,0.01,601,Wunderground v.1.15,2013-09-28 15:12:00,
2013-09-28 11:18:00,68.6,55.5,30.31,NNW,341,1.0,4.0,63,0.00,,,0.01,610,Wunderground v.1.15,2013-09-28 15:18:00,
2013-09-28 11:24:00,69.2,55.6,30.31,NNE,24,1.0,2.0,62,0.00,,,0.01,621,Wunderground v.1.15,2013-09-28 15:24:00,
2013-09-28 11:30:00,69.9,55.4,30.31,North,5,1.0,2.0,60,0.00,,,0.01,626,Wunderground v.1.15,2013-09-28 15:30:00,
2013-09-28 11:35:00,69.9,54.0,30.31,NE,49,1.0,2.0,57,0.00,,,0.01,633,Wunderground v.1.15,2013-09-28 15:35:00,
2013-09-28 11:41:00,69.7,53.3,30.31,ENE,70,2.0,3.0,56,0.00,,,0.01,654,Wunderground v.1.15,2013-09-28 15:41:00,
2013-09-28 11:47:00,69.6,53.2,30.31,North,5,3.0,5.0,56,0.00,,,0.01,680,Wunderground v.1.15,2013-09-28 15:47:00,
2013-09-28 11:52:00,69.5,53.6,30.31,NNW,333,3.0,4.0,57,0.00,,,0.01,120,Wunderground v.1.15,2013-09-28 15:52:00,
2013-09-28 11:58:00,69.4,53.5,30.31,NNE,30,2.0,4.0,57,0.00,,,0.01,148,Wunderground v.1.15,2013-09-28 15:58:00,
2013-09-28 12:04:00,69.4,52.0,30.31,NW,311,2.0,7.0,54,0.00,,,0.01,104,Wunderground v.1.15,2013-09-28 16:04:00,
2013-09-28 12:10:00,69.4,51.0,30.31,NW,322,3.0,4.0,52,0.00,,,0.01,708,Wunderground v.1.15,2013-09-28 16:10:00,
2013-09-28 12:15:00,69.6,52.7,30.31,NNW,339,2.0,4.0,55,0.00,,,0.01,710,Wunderground v.1.15,2013-09-28 16:15:00,
2013-09-28 12:22:00,69.8,52.4,30.31,NNE,30,1.0,2.0,54,0.00,,,0.01,568,Wunderground v.1.15,2013-09-28 16:22:00,
2013-09-28 12:28:00,70.2,52.8,30.30,SW,219,1.0,2.0,54,0.00,,,0.01,694,Wunderground v.1.15,2013-09-28 16:28:00,
2013-09-28 12:34:00,70.9,52.9,30.31,ENE,65,1.0,2.0,53,0.00,,,0.01,742,Wunderground v.1.15,2013-09-28 16:34:00,
2013-09-28 12:39:00,71.4,52.9,30.30,ENE,76,1.0,2.0,52,0.00,,,0.01,218,Wunderground v.1.15,2013-09-28 16:39:00,
2013-09-28 12:45:00,71.6,53.6,30.30,ESE,103,1.0,4.0,53,0.00,,,0.01,204,Wunderground v.1.15,2013-09-28 16:45:00,
2013-09-28 12:50:00,71.9,54.3,30.30,East,94,0.0,0.0,54,0.00,,,0.01,761,Wunderground v.1.15,2013-09-28 16:50:00,
2013-09-28 12:56:00,72.4,52.7,30.30,South,169,0.0,1.0,50,0.00,,,0.01,752,Wunderground v.1.15,2013-09-28 16:56:00,
2013-09-28 13:02:00,72.9,57.3,30.29,South,175,1.0,3.0,58,0.00,,,0.01,766,Wunderground v.1.15,2013-09-28 17:02:00,
2013-09-28 13:08:00,72.5,56.9,30.29,West,267,2.0,3.0,58,0.00,,,0.01,172,Wunderground v.1.15,2013-09-28 17:08:00,
2013-09-28 13:13:00,71.5,56.9,30.29,SSE,157,1.0,2.0,60,0.00,,,0.01,181,Wunderground v.1.15,2013-09-28 17:13:00,
2013-09-28 13:19:00,71.3,56.7,30.29,SW,219,1.0,5.0,60,0.00,,,0.01,744,Wunderground v.1.15,2013-09-28 17:19:00,
2013-09-28 13:24:00,71.7,56.6,30.29,South,171,2.0,2.0,59,0.00,,,0.01,749,Wunderground v.1.15,2013-09-28 17:24:00,
2013-09-28 13:30:00,71.7,57.5,30.29,West,259,1.0,1.0,61,0.00,,,0.01,155,Wunderground v.1.15,2013-09-28 17:30:00,
2013-09-28 13:36:00,71.1,56.5,30.29,SSW,208,2.0,6.0,60,0.00,,,0.01,144,Wunderground v.1.15,2013-09-28 17:36:00,
2013-09-28 13:42:00,70.8,56.2,30.29,SW,227,1.0,2.0,60,0.00,,,0.01,195,Wunderground v.1.15,2013-09-28 17:42:00,
2013-09-28 13:48:00,70.7,56.1,30.29,SSW,193,1.0,2.0,60,0.00,,,0.01,610,Wunderground v.1.15,2013-09-28 17:48:00,
2013-09-28 13:53:00,70.5,55.9,30.29,SSW,195,1.0,4.0,60,0.00,,,0.01,172,Wunderground v.1.15,2013-09-28 17:53:00,
2013-09-28 13:59:00,70.2,57.4,30.28,SSW,195,2.0,4.0,64,0.00,,,0.01,267,Wunderground v.1.15,2013-09-28 17:59:00,
2013-09-28 14:05:00,69.7,57.0,30.28,ESE,115,3.0,4.0,64,0.00,,,0.01,698,Wunderground v.1.15,2013-09-28 18:05:00,
2013-09-28 14:10:00,70.0,57.3,30.28,SSE,150,3.0,4.0,64,0.00,,,0.01,165,Wunderground v.1.15,2013-09-28 18:10:00,
2013-09-28 14:16:00,70.0,57.7,30.28,South,185,3.0,5.0,65,0.00,,,0.01,255,Wunderground v.1.15,2013-09-28 18:16:00,
2013-09-28 14:21:00,70.2,57.4,30.28,SSE,163,3.0,8.0,64,0.00,,,0.01,585,Wunderground v.1.15,2013-09-28 18:21:00,
2013-09-28 14:27:00,70.0,56.8,30.28,WSW,253,4.0,8.0,63,0.00,,,0.01,577,Wunderground v.1.15,2013-09-28 18:27:00,
2013-09-28 14:32:00,70.1,56.9,30.28,SE,146,4.0,7.0,63,0.00,,,0.01,566,Wunderground v.1.15,2013-09-28 18:32:00,
2013-09-28 14:37:00,70.2,57.4,30.28,SE,139,3.0,7.0,64,0.00,,,0.01,559,Wunderground v.1.15,2013-09-28 18:37:00,
2013-09-28 14:43:00,70.4,58.1,30.28,SSW,207,3.0,4.0,65,0.00,,,0.01,552,Wunderground v.1.15,2013-09-28 18:43:00,
2013-09-28 14:49:00,70.6,57.8,30.28,SSW,196,2.0,4.0,64,0.00,,,0.01,540,Wunderground v.1.15,2013-09-28 18:49:00,
2013-09-28 14:54:00,70.7,57.5,30.28,SSW,204,2.0,6.0,63,0.00,,,0.01,527,Wunderground v.1.15,2013-09-28 18:54:00,
2013-09-28 15:00:00,70.5,57.7,30.28,SSW,207,3.0,3.0,64,0.00,,,0.01,520,Wunderground v.1.15,2013-09-28 19:00:00,
2013-09-28 15:06:00,70.4,57.2,30.28,SSW,206,2.0,5.0,63,0.00,,,0.01,499,Wunderground v.1.15,2013-09-28 19:06:00,
2013-09-28 15:11:00,70.1,56.9,30.28,SE,144,4.0,4.0,63,0.00,,,0.01,490,Wunderground v.1.15,2013-09-28 19:11:00,
2013-09-28 15:17:00,70.0,56.8,30.28,SSE,148,3.0,4.0,63,0.00,,,0.01,480,Wunderground v.1.15,2013-09-28 19:17:00,
2013-09-28 15:22:00,69.4,56.7,30.28,SE,134,3.0,5.0,64,0.00,,,0.01,464,Wunderground v.1.15,2013-09-28 19:22:00,
2013-09-28 15:28:00,69.0,56.3,30.28,South,182,4.0,5.0,64,0.00,,,0.01,450,Wunderground v.1.15,2013-09-28 19:28:00,
2013-09-28 15:34:00,68.5,56.3,30.28,South,186,3.0,4.0,65,0.00,,,0.01,436,Wunderground v.1.15,2013-09-28 19:34:00,
2013-09-28 15:40:00,68.2,56.0,30.28,SSW,213,3.0,3.0,65,0.00,,,0.01,424,Wunderground v.1.15,2013-09-28 19:40:00,
2013-09-28 15:46:00,67.9,55.7,30.29,SSW,202,2.0,4.0,65,0.00,,,0.01,406,Wunderground v.1.15,2013-09-28 19:46:00,
2013-09-28 15:52:00,67.7,55.9,30.29,South,186,2.0,4.0,66,0.00,,,0.01,394,Wunderground v.1.15,2013-09-28 19:52:00,
2013-09-28 15:57:00,67.5,55.7,30.29,SSE,153,2.0,6.0,66,0.00,,,0.01,381,Wunderground v.1.15,2013-09-28 19:57:00,
2013-09-28 16:03:00,67.4,55.6,30.28,SSW,192,3.0,6.0,66,0.00,,,0.01,366,Wunderground v.1.15,2013-09-28 20:03:00,
2013-09-28 16:09:00,66.9,55.6,30.28,SSW,207,3.0,6.0,67,0.00,,,0.01,350,Wunderground v.1.15,2013-09-28 20:09:00,
2013-09-28 16:14:00,66.7,55.0,30.29,SW,223,3.0,5.0,66,0.00,,,0.01,338,Wunderground v.1.15,2013-09-28 20:14:00,
2013-09-28 16:20:00,66.4,55.1,30.29,South,180,3.0,9.0,67,0.00,,,0.01,320,Wunderground v.1.15,2013-09-28 20:20:00,
2013-09-28 16:26:00,66.0,54.7,30.28,SSW,196,4.0,9.0,67,0.00,,,0.01,302,Wunderground v.1.15,2013-09-28 20:26:00,
2013-09-28 16:31:00,65.7,54.8,30.28,SSW,200,4.0,7.0,68,0.00,,,0.01,290,Wunderground v.1.15,2013-09-28 20:31:00,
2013-09-28 16:37:00,65.1,54.3,30.28,SW,217,3.0,9.0,68,0.00,,,0.01,272,Wunderground v.1.15,2013-09-28 20:37:00,
2013-09-28 16:43:00,64.7,54.3,30.28,SE,142,4.0,4.0,69,0.00,,,0.01,213,Wunderground v.1.15,2013-09-28 20:43:00,
2013-09-28 16:49:00,64.2,53.8,30.28,ESE,121,3.0,6.0,69,0.00,,,0.01,42,Wunderground v.1.15,2013-09-28 20:49:00,
2013-09-28 16:55:00,63.7,52.5,30.28,South,173,4.0,11.0,67,0.00,,,0.01,39,Wunderground v.1.15,2013-09-28 20:55:00,
2013-09-28 17:01:00,63.3,53.0,30.28,East,98,4.0,4.0,69,0.00,,,0.01,93,Wunderground v.1.15,2013-09-28 21:01:00,
2013-09-28 17:07:00,62.9,52.6,30.28,South,174,4.0,4.0,69,0.00,,,0.01,70,Wunderground v.1.15,2013-09-28 21:07:00,
2013-09-28 17:13:00,62.5,52.6,30.28,SSE,167,4.0,4.0,70,0.00,,,0.01,100,Wunderground v.1.15,2013-09-28 21:13:00,
2013-09-28 17:19:00,62.4,52.9,30.28,SSE,148,2.0,5.0,71,0.00,,,0.01,35,Wunderground v.1.15,2013-09-28 21:19:00,
2013-09-28 17:24:00,62.3,53.5,30.28,South,186,2.0,2.0,73,0.00,,,0.01,25,Wunderground v.1.15,2013-09-28 21:24:00,
2013-09-28 17:30:00,62.1,53.3,30.28,SSW,205,1.0,1.0,73,0.00,,,0.01,23,Wunderground v.1.15,2013-09-28 21:30:00,
2013-09-28 17:36:00,61.9,53.5,30.28,South,188,1.0,2.0,74,0.00,,,0.01,21,Wunderground v.1.15,2013-09-28 21:36:00,
2013-09-28 17:43:00,61.6,53.6,30.28,SSW,209,1.0,2.0,75,0.00,,,0.01,19,Wunderground v.1.15,2013-09-28 21:43:00,
2013-09-28 17:49:00,61.3,52.9,30.28,SSW,204,2.0,4.0,74,0.00,,,0.01,19,Wunderground v.1.15,2013-09-28 21:49:00,
2013-09-28 17:54:00,61.0,53.0,30.28,South,188,2.0,4.0,75,0.00,,,0.01,16,Wunderground v.1.15,2013-09-28 21:54:00,
2013-09-28 18:00:00,60.6,52.6,30.28,SSW,207,2.0,2.0,75,0.00,,,0.01,14,Wunderground v.1.15,2013-09-28 22:00:00,
2013-09-28 18:05:00,60.4,52.8,30.28,SSW,205,2.0,2.0,76,0.00,,,0.01,12,Wunderground v.1.15,2013-09-28 22:05:00,
2013-09-28 18:11:00,60.0,52.8,30.28,SSW,211,2.0,2.0,77,0.00,,,0.01,11,Wunderground v.1.15,2013-09-28 22:11:00,
2013-09-28 18:17:00,59.6,52.7,30.28,South,184,1.0,2.0,78,0.00,,,0.01,7,Wunderground v.1.15,2013-09-28 22:17:00,
2013-09-28 18:22:00,59.2,52.3,30.29,South,188,1.0,1.0,78,0.00,,,0.01,5,Wunderground v.1.15,2013-09-28 22:22:00,
2013-09-28 18:28:00,58.8,52.6,30.28,South,169,1.0,2.0,80,0.00,,,0.01,0,Wunderground v.1.15,2013-09-28 22:28:00,
2013-09-28 18:34:00,58.3,52.5,30.29,SSE,152,1.0,3.0,81,0.00,,,0.01,0,Wunderground v.1.15,2013-09-28 22:34:00,
2013-09-28 18:40:00,57.8,52.3,30.28,SSE,151,1.0,1.0,82,0.00,,,0.01,0,Wunderground v.1.15,2013-09-28 22:40:00,
2013-09-28 18:46:00,57.4,52.3,30.28,South,169,0.0,1.0,83,0.00,,,0.01,0,Wunderground v.1.15,2013-09-28 22:46:00,
2013-09-28 18:52:00,57.1,52.0,30.29,South,177,0.0,0.0,83,0.00,,,0.01,0,Wunderground v.1.15,2013-09-28 22:52:00,
2013-09-28 18:58:00,56.9,51.8,30.29,South,177,0.0,0.0,83,0.00,,,0.01,0,Wunderground v.1.15,2013-09-28 22:58:00,
2013-09-28 19:03:00,56.9,51.8,30.29,South,177,0.0,0.0,83,0.00,,,0.01,0,Wunderground v.1.15,2013-09-28 23:03:00,
2013-09-28 19:09:00,56.7,51.9,30.29,South,177,0.0,0.0,84,0.00,,,0.01,0,Wunderground v.1.15,2013-09-28 23:09:00,
2013-09-28 19:14:00,56.5,51.7,30.29,South,177,0.0,0.0,84,0.00,,,0.01,0,Wunderground v.1.15,2013-09-28 23:14:00,
2013-09-28 19:20:00,56.3,51.5,30.29,South,177,0.0,0.0,84,0.00,,,0.01,0,Wunderground v.1.15,2013-09-28 23:20:00,
2013-09-28 19:26:00,56.0,51.6,30.28,South,177,0.0,0.0,85,0.00,,,0.01,0,Wunderground v.1.15,2013-09-28 23:26:00,
2013-09-28 19:32:00,55.5,51.1,30.28,South,177,0.0,0.0,85,0.00,,,0.01,0,Wunderground v.1.15,2013-09-28 23:32:00,
2013-09-28 19:38:00,55.2,51.1,30.28,South,177,0.0,0.0,86,0.00,,,0.01,0,Wunderground v.1.15,2013-09-28 23:38:00,
2013-09-28 19:44:00,54.9,50.8,30.28,South,177,0.0,0.0,86,0.00,,,0.01,0,Wunderground v.1.15,2013-09-28 23:44:00,
2013-09-28 19:49:00,54.6,50.8,30.29,South,177,0.0,0.0,87,0.00,,,0.01,0,Wunderground v.1.15,2013-09-28 23:49:00,
2013-09-28 19:54:00,54.3,50.5,30.29,South,177,0.0,0.0,87,0.00,,,0.01,0,Wunderground v.1.15,2013-09-28 23:54:00,
2013-09-28 20:00:00,54.1,50.3,30.29,South,177,0.0,0.0,87,0.00,,,0.01,0,Wunderground v.1.15,2013-09-29 00:00:00,
2013-09-28 20:05:00,53.8,50.3,30.29,South,177,0.0,0.0,88,0.00,,,0.01,0,Wunderground v.1.15,2013-09-29 00:05:00,
2013-09-28 20:10:00,53.5,50.3,30.29,South,177,0.0,0.0,89,0.00,,,0.01,0,Wunderground v.1.15,2013-09-29 00:10:00,
2013-09-28 20:15:00,53.3,50.1,30.29,South,177,0.0,0.0,89,0.00,,,0.01,0,Wunderground v.1.15,2013-09-29 00:15:00,
2013-09-28 20:21:00,53.0,49.8,30.29,South,177,0.0,0.0,89,0.00,,,0.01,0,Wunderground v.1.15,2013-09-29 00:21:00,
2013-09-28 20:27:00,52.7,49.5,30.29,South,177,0.0,0.0,89,0.00,,,0.01,0,Wunderground v.1.15,2013-09-29 00:27:00,
2013-09-28 20:33:00,52.5,49.7,30.29,South,177,0.0,0.0,90,0.00,,,0.01,0,Wunderground v.1.15,2013-09-29 00:33:00,
2013-09-28 20:39:00,52.3,49.5,30.28,South,177,0.0,0.0,90,0.00,,,0.01,0,Wunderground v.1.15,2013-09-29 00:39:00,
2013-09-28 20:45:00,52.0,49.5,30.28,South,177,0.0,0.0,91,0.00,,,0.01,0,Wunderground v.1.15,2013-09-29 00:45:00,
2013-09-28 20:51:00,51.7,49.2,30.28,South,177,0.0,0.0,91,0.00,,,0.01,0,Wunderground v.1.15,2013-09-29 00:51:00,
2013-09-28 20:56:00,51.5,49.0,30.28,South,177,0.0,0.0,91,0.00,,,0.01,0,Wunderground v.1.15,2013-09-29 00:56:00,
2013-09-28 21:02:00,51.3,48.8,30.28,South,177,0.0,0.0,91,0.00,,,0.01,0,Wunderground v.1.15,2013-09-29 01:02:00,
2013-09-28 21:08:00,51.1,48.6,30.28,South,177,0.0,0.0,91,0.00,,,0.01,0,Wunderground v.1.15,2013-09-29 01:08:00,
2013-09-28 21:13:00,50.9,48.7,30.28,South,177,0.0,0.0,92,0.00,,,0.01,0,Wunderground v.1.15,2013-09-29 01:13:00,
2013-09-28 21:19:00,50.7,48.5,30.28,South,177,0.0,0.0,92,0.00,,,0.01,0,Wunderground v.1.15,2013-09-29 01:19:00,
2013-09-28 21:25:00,50.5,48.3,30.28,South,177,0.0,0.0,92,0.00,,,0.01,0,Wunderground v.1.15,2013-09-29 01:25:00,
2013-09-28 21:31:00,50.3,48.1,30.28,South,177,0.0,0.0,92,0.00,,,0.01,0,Wunderground v.1.15,2013-09-29 01:31:00,
2013-09-28 21:36:00,50.1,47.9,30.29,South,177,0.0,0.0,92,0.00,,,0.01,0,Wunderground v.1.15,2013-09-29 01:36:00,
2013-09-28 21:42:00,49.9,47.7,30.28,South,177,0.0,0.0,92,0.00,,,0.01,0,Wunderground v.1.15,2013-09-29 01:42:00,
2013-09-28 21:47:00,49.8,47.9,30.28,South,177,0.0,0.0,93,0.00,,,0.01,0,Wunderground v.1.15,2013-09-29 01:47:00,
2013-09-28 21:52:00,49.7,47.8,30.28,South,177,0.0,0.0,93,0.00,,,0.01,0,Wunderground v.1.15,2013-09-29 01:52:00,
2013-09-28 21:58:00,49.5,47.6,30.28,South,177,0.0,0.0,93,0.00,,,0.01,0,Wunderground v.1.15,2013-09-29 01:58:00,
2013-09-28 22:04:00,49.2,47.3,30.29,South,177,0.0,0.0,93,0.00,,,0.01,0,Wunderground v.1.15,2013-09-29 02:04:00,
2013-09-28 22:09:00,49.0,47.1,30.28,South,177,0.0,0.0,93,0.00,,,0.01,0,Wunderground v.1.15,2013-09-29 02:09:00,
2013-09-28 22:15:00,48.9,47.0,30.28,South,177,0.0,0.0,93,0.00,,,0.01,0,Wunderground v.1.15,2013-09-29 02:15:00,
2013-09-28 22:21:00,48.7,46.8,30.28,South,177,0.0,0.0,93,0.00,,,0.01,0,Wunderground v.1.15,2013-09-29 02:21:00,
2013-09-28 22:26:00,48.4,46.5,30.28,South,177,0.0,0.0,93,0.00,,,0.01,0,Wunderground v.1.15,2013-09-29 02:26:00,
2013-09-28 22:33:00,48.2,46.3,30.28,South,177,0.0,0.0,93,0.00,,,0.01,0,Wunderground v.1.15,2013-09-29 02:33:00,
2013-09-28 22:38:00,48.1,46.2,30.28,South,177,0.0,0.0,93,0.00,,,0.01,0,Wunderground v.1.15,2013-09-29 02:38:00,
2013-09-28 22:44:00,47.9,46.0,30.29,South,177,0.0,0.0,93,0.00,,,0.01,0,Wunderground v.1.15,2013-09-29 02:44:00,
2013-09-28 22:49:00,47.7,45.8,30.29,South,177,0.0,0.0,93,0.00,,,0.01,0,Wunderground v.1.15,2013-09-29 02:49:00,
2013-09-28 22:55:00,47.5,45.9,30.28,South,177,0.0,0.0,94,0.00,,,0.01,0,Wunderground v.1.15,2013-09-29 02:55:00,
2013-09-28 23:01:00,47.3,45.4,30.28,South,177,0.0,0.0,93,0.00,,,0.01,0,Wunderground v.1.15,2013-09-29 03:01:00,
2013-09-28 23:06:00,47.2,45.6,30.28,South,177,0.0,0.0,94,0.00,,,0.01,0,Wunderground v.1.15,2013-09-29 03:06:00,
2013-09-28 23:11:00,47.1,45.5,30.28,South,177,0.0,0.0,94,0.00,,,0.01,0,Wunderground v.1.15,2013-09-29 03:11:00,
2013-09-28 23:17:00,46.9,45.3,30.28,South,177,0.0,0.0,94,0.00,,,0.01,0,Wunderground v.1.15,2013-09-29 03:17:00,
2013-09-28 23:22:00,46.8,45.2,30.28,South,177,0.0,0.0,94,0.00,,,0.01,0,Wunderground v.1.15,2013-09-29 03:22:00,
2013-09-28 23:28:00,46.7,45.1,30.28,South,177,0.0,0.0,94,0.00,,,0.01,0,Wunderground v.1.15,2013-09-29 03:28:00,
2013-09-28 23:33:00,46.6,45.0,30.28,South,177,0.0,0.0,94,0.00,,,0.01,0,Wunderground v.1.15,2013-09-29 03:33:00,
2013-09-28 23:38:00,46.5,44.9,30.28,South,177,0.0,0.0,94,0.00,,,0.01,0,Wunderground v.1.15,2013-09-29 03:38:00,
2013-09-28 23:45:00,46.3,44.7,30.27,South,177,0.0,0.0,94,0.00,,,0.01,0,Wunderground v.1.15,2013-09-29 03:45:00,
2013-09-28 23:50:00,46.2,44.8,30.27,South,177,0.0,0.0,95,0.00,,,0.01,0,Wunderground v.1.15,2013-09-29 03:50:00,
2013-09-28 23:56:00,46.1,44.7,30.27,South,177,0.0,0.0,95,0.00,,,0.01,0,Wunderground v.1.15,2013-09-29 03:56:00,